Time;durP1;ratioP1;P1;durP2;ratioP2;P2;SDS_P1;SDS_P2;PMS_P1;PMS_P2;Temp;Humidity;BMP_temperature;BMP_pressure;BME280_temperature;BME280_humidity;BME280_pressure;Samples;Min_cycle;Max_cycle;Signal;HPM_P1;HPM_P2
2023/03/07 00:00:31;;;;;;;47.30;24.30;;;2.20;99.90;;;0.14;93.64;99123.09;10333138;28;96528;-85
2023/03/07 00:05:34;;;;;;;46.47;21.97;;;2.10;99.90;;;0.04;93.50;99126.59;10319742;28;96519;-85
2023/03/07 00:10:38;;;;;;;49.77;26.13;;;2.10;99.90;;;0.00;94.14;99131.28;10340745;28;97429;-85
2023/03/07 00:15:41;;;;;;;51.80;24.60;;;2.00;99.90;;;-0.03;93.65;99134.13;10304086;28;97129;-84
2023/03/07 00:20:44;;;;;;;49.33;24.40;;;2.00;99.90;;;-0.09;94.23;99143.28;10336795;28;97648;-84
2023/03/07 00:26:03;;;;;;;44.30;22.83;;;1.90;99.90;;;-0.10;94.41;99135.59;10314796;28;96470;-84
2023/03/07 00:31:10;;;;;;;40.97;20.10;;;1.90;99.90;;;-0.11;94.46;99137.38;10292022;28;97172;-84
2023/03/07 00:36:19;;;;;;;45.47;22.10;;;1.90;99.90;;;-0.13;94.61;99128.00;10344501;28;96495;-84
2023/03/07 00:41:27;;;;;;;40.03;20.17;;;1.80;99.90;;;-0.17;95.10;99129.22;10332402;28;96643;-84
2023/03/07 00:46:30;;;;;;;47.73;22.47;;;1.80;99.90;;;-0.20;95.12;99134.69;10335002;28;98450;-86
2023/03/07 00:51:33;;;;;;;42.37;22.67;;;1.80;99.90;;;-0.25;95.14;99124.59;10310381;28;98559;-85
2023/03/07 00:56:36;;;;;;;47.17;24.63;;;1.70;99.90;;;-0.30;95.39;99113.69;10314684;28;96464;-85
2023/03/07 01:01:39;;;;;;;44.20;21.50;;;1.70;99.90;;;-0.33;95.55;99106.13;10314881;28;97858;-85
2023/03/07 01:06:42;;;;;;;46.27;23.40;;;1.60;99.90;;;-0.39;95.87;99106.63;10318376;28;96720;-85
2023/03/07 01:11:45;;;;;;;47.17;23.17;;;1.60;99.90;;;-0.46;95.64;99103.69;10333833;28;98287;-86
2023/03/07 01:16:48;;;;;;;41.80;22.77;;;1.50;99.90;;;-0.51;95.77;99084.97;10293839;28;98475;-85
2023/03/07 01:21:51;;;;;;;41.57;20.63;;;1.50;99.90;;;-0.54;96.21;99072.16;10334413;28;96653;-85
2023/03/07 01:26:54;;;;;;;46.40;23.40;;;1.40;99.90;;;-0.57;96.10;99083.69;10347248;28;98260;-85
2023/03/07 01:31:57;;;;;;;45.80;21.73;;;1.40;99.90;;;-0.58;95.95;99089.88;10326773;28;96597;-85
2023/03/07 01:37:00;;;;;;;48.57;23.07;;;1.40;99.90;;;-0.58;95.81;99091.66;10334462;28;96622;-85
2023/03/07 01:42:03;;;;;;;48.43;23.03;;;1.40;99.90;;;-0.59;96.67;99093.44;10318002;28;96567;-85
2023/03/07 01:47:06;;;;;;;53.80;25.63;;;1.40;99.90;;;-0.61;96.28;99092.72;10308965;28;96873;-85
2023/03/07 01:52:43;;;;;;;56.30;28.00;;;1.40;99.90;;;-0.63;96.30;99092.00;10331962;28;97746;-85
2023/03/07 01:57:49;;;;;;;49.43;23.20;;;1.30;99.90;;;-0.66;96.72;99087.06;10334461;28;96632;-85
2023/03/07 02:03:09;;;;;;;51.77;24.90;;;1.30;99.90;;;-0.64;96.56;99084.31;10333917;28;98817;-85
2023/03/07 02:08:15;;;;;;;53.50;28.17;;;1.30;99.90;;;-0.61;96.70;99078.84;10339119;28;97032;-85
2023/03/07 02:13:18;;;;;;;51.67;26.77;;;1.30;99.90;;;-0.58;96.82;99070.78;10334957;28;97440;-84
2023/03/07 02:18:27;;;;;;;53.90;27.23;;;1.40;99.90;;;-0.57;96.85;99069.81;10342980;28;96536;-85
2023/03/07 02:24:11;;;;;;;51.03;25.07;;;1.40;99.90;;;-0.53;96.91;99078.22;10296001;28;98769;-85
2023/03/07 02:29:15;;;;;;;43.60;21.87;;;1.40;99.90;;;-0.52;97.33;99074.66;10292865;28;98170;-84
2023/03/07 02:34:25;;;;;;;50.37;24.80;;;1.40;99.90;;;-0.48;97.22;99068.22;10325037;28;98844;-85
2023/03/07 02:39:29;;;;;;;52.63;24.73;;;1.50;99.90;;;-0.45;97.34;99076.63;10337092;28;96542;-86
2023/03/07 02:44:32;;;;;;;46.90;22.43;;;1.50;99.90;;;-0.43;97.50;99077.34;10283855;28;97136;-86
2023/03/07 02:49:35;;;;;;;43.33;21.17;;;1.50;99.90;;;-0.39;97.28;99078.75;10310151;28;96550;-86
2023/03/07 02:54:38;;;;;;;41.53;20.77;;;1.60;99.90;;;-0.36;97.71;99077.66;10308309;28;97584;-85
2023/03/07 02:59:41;;;;;;;45.70;24.60;;;1.60;99.90;;;-0.34;97.45;99087.03;10314117;28;96626;-86
2023/03/07 03:04:45;;;;;;;49.70;22.37;;;1.60;99.90;;;-0.29;97.85;99074.44;10323230;28;96915;-85
2023/03/07 03:09:48;;;;;;;41.07;22.23;;;1.60;99.90;;;-0.23;98.31;99070.50;10319892;28;96805;-85
2023/03/07 03:14:51;;;;;;;55.13;30.67;;;1.70;99.90;;;-0.18;98.42;99070.09;10323462;28;96733;-85
2023/03/07 03:19:55;;;;;;;50.73;27.73;;;1.70;99.90;;;-0.13;98.72;99073.16;10354805;28;97058;-86
2023/03/07 03:24:58;;;;;;;51.77;25.37;;;1.80;99.90;;;-0.08;98.71;99068.38;10350225;28;98674;-85
2023/03/07 03:30:01;;;;;;;51.00;26.77;;;1.80;99.90;;;-0.06;98.55;99071.69;10366734;28;98635;-85
2023/03/07 03:35:06;;;;;;;47.07;24.40;;;1.90;99.90;;;-0.07;98.74;99070.03;10316199;28;96722;-85
2023/03/07 03:40:13;;;;;;;59.80;28.87;;;1.90;99.90;;;-0.05;98.88;99070.75;10343744;28;96765;-85
2023/03/07 03:45:16;;;;;;;46.63;23.67;;;1.90;99.90;;;-0.06;98.52;99069.06;10312230;28;96621;-85
2023/03/07 03:50:19;;;;;;;48.60;27.23;;;1.90;99.90;;;-0.06;98.52;99058.63;10327979;28;96670;-84
2023/03/07 03:55:22;;;;;;;44.50;22.93;;;1.90;99.90;;;-0.07;98.97;99062.19;10337451;28;96564;-85
2023/03/07 04:00:27;;;;;;;51.83;27.60;;;1.90;99.90;;;-0.09;98.56;99064.13;10344860;28;97318;-85
2023/03/07 04:05:33;;;;;;;48.07;26.00;;;1.90;99.90;;;-0.11;98.86;99056.41;10318857;28;96594;-85
2023/03/07 04:10:36;;;;;;;49.67;26.27;;;1.80;99.90;;;-0.10;98.82;99055.47;10326857;28;96764;-85
2023/03/07 04:15:39;;;;;;;48.87;27.00;;;1.80;99.90;;;-0.11;98.89;99061.66;10290701;28;96699;-84
2023/03/07 04:20:44;;;;;;;43.37;21.33;;;1.80;99.90;;;-0.14;99.14;99058.44;10326334;28;96550;-85
2023/03/07 04:25:56;;;;;;;52.23;28.27;;;1.80;99.90;;;-0.17;98.58;99062.16;10333226;28;96933;-84
2023/03/07 04:30:59;;;;;;;54.07;28.00;;;1.80;99.90;;;-0.21;98.73;99060.75;10329560;28;96554;-85
2023/03/07 04:36:02;;;;;;;59.63;31.70;;;1.70;99.90;;;-0.24;99.11;99074.06;10291743;28;96582;-85
2023/03/07 04:41:06;;;;;;;63.53;33.30;;;1.70;99.90;;;-0.26;98.87;99078.56;10333643;28;96800;-85
2023/03/07 04:46:12;;;;;;;60.00;31.90;;;1.70;99.90;;;-0.29;98.91;99074.44;10333816;28;96550;-85
2023/03/07 04:51:15;;;;;;;66.47;30.50;;;1.60;99.90;;;-0.34;99.05;99087.03;10310549;28;96682;-85
2023/03/07 04:56:19;;;;;;;52.10;26.23;;;1.60;99.90;;;-0.39;99.12;99093.59;10330285;28;96762;-85
2023/03/07 05:01:22;;;;;;;56.20;26.43;;;1.60;99.90;;;-0.44;99.11;99080.91;10329435;28;96652;-84
2023/03/07 05:06:25;;;;;;;53.60;28.53;;;1.60;99.90;;;-0.45;99.04;99078.44;10334037;28;96566;-84
2023/03/07 05:11:28;;;;;;;58.73;28.80;;;1.50;99.90;;;-0.47;99.04;99090.78;10317035;28;96629;-84
2023/03/07 05:16:32;;;;;;;70.23;34.90;;;1.50;99.90;;;-0.45;99.10;99087.09;10332847;28;96648;-84
2023/03/07 05:21:38;;;;;;;57.50;30.17;;;1.50;99.90;;;-0.46;99.20;99088.03;10317720;28;96535;-84
2023/03/07 05:26:42;;;;;;;59.30;30.37;;;1.50;99.90;;;-0.48;99.61;99089.09;10318088;28;98507;-84
2023/03/07 05:31:46;;;;;;;75.53;36.37;;;1.50;99.90;;;-0.51;99.26;99087.59;10312086;28;97482;-86
2023/03/07 05:36:49;;;;;;;65.47;32.40;;;1.50;99.90;;;-0.52;99.65;99092.94;10320750;28;98622;-86
2023/03/07 05:41:52;;;;;;;58.67;28.97;;;1.40;99.90;;;-0.52;99.71;99100.75;10316118;28;96714;-86
2023/03/07 05:46:55;;;;;;;67.93;36.60;;;1.40;99.90;;;-0.49;99.57;99100.50;10318918;28;96776;-86
2023/03/07 05:52:00;;;;;;;68.83;33.57;;;1.40;99.90;;;-0.44;100.00;99096.56;10288426;28;96554;-86
2023/03/07 05:57:03;;;;;;;50.77;27.73;;;1.50;99.90;;;-0.35;100.00;99101.03;10345268;28;96650;-86
2023/03/07 06:02:06;;;;;;;61.77;31.17;;;1.60;99.90;;;-0.24;100.00;99101.94;10316712;28;96612;-86
2023/03/07 06:07:11;;;;;;;61.70;27.67;;;1.70;99.90;;;-0.11;100.00;99107.81;10328246;28;96702;-86
2023/03/07 06:12:14;;;;;;;50.27;27.63;;;1.80;99.90;;;0.02;100.00;99113.69;10327127;28;98402;-86
2023/03/07 06:17:17;;;;;;;80.57;36.60;;;1.90;99.90;;;0.14;100.00;99124.91;10309913;28;98719;-86
2023/03/07 06:22:20;;;;;;;53.40;27.90;;;2.00;99.90;;;0.24;100.00;99124.00;10296886;28;97095;-85
2023/03/07 06:27:25;;;;;;;43.23;24.37;;;2.10;99.90;;;0.40;100.00;99128.75;10294666;28;97134;-85
2023/03/07 06:32:29;;;;;;;50.43;27.30;;;2.30;99.90;;;0.56;100.00;99127.47;10364359;28;97391;-86
2023/03/07 06:37:32;;;;;;;56.97;30.33;;;2.40;99.90;;;0.67;100.00;99130.81;10321289;28;97461;-86
2023/03/07 06:42:36;;;;;;;50.97;31.80;;;2.50;99.90;;;0.79;100.00;99134.19;10332089;28;96814;-86
2023/03/07 06:47:39;;;;;;;40.67;25.17;;;2.60;99.90;;;0.87;100.00;99129.09;10335529;28;96960;-84
2023/03/07 06:52:42;;;;;;;44.80;25.93;;;2.70;99.90;;;1.01;100.00;99138.38;10340269;28;96481;-90
2023/03/07 06:57:46;;;;;;;44.30;24.53;;;2.80;99.90;;;1.22;100.00;99149.59;10321599;28;96658;-87
2023/03/07 07:02:49;;;;;;;40.40;23.17;;;3.00;99.90;;;1.40;100.00;99135.88;10321691;28;97498;-84
2023/03/07 07:07:52;;;;;;;36.53;22.10;;;3.20;99.90;;;1.56;100.00;99134.38;10330204;28;96726;-89
2023/03/07 07:12:56;;;;;;;32.87;20.20;;;3.30;99.90;;;1.69;99.89;99128.88;10309301;28;96594;-89
2023/03/07 07:17:59;;;;;;;35.53;21.50;;;3.50;99.90;;;1.83;99.74;99128.44;10322447;28;98494;-88
2023/03/07 07:23:02;;;;;;;34.67;20.60;;;3.60;99.90;;;1.99;99.90;99129.69;10334358;28;96472;-83
2023/03/07 07:28:05;;;;;;;36.47;23.57;;;3.80;99.90;;;2.09;99.32;99140.97;10319136;28;96667;-83
2023/03/07 07:33:08;;;;;;;43.43;24.20;;;3.90;99.90;;;2.22;98.62;99138.03;10361191;28;96612;-90
2023/03/07 07:38:12;;;;;;;39.07;23.40;;;4.00;99.90;;;2.45;98.64;99141.19;10335099;28;96840;-90
2023/03/07 07:43:17;;;;;;;41.87;25.20;;;4.20;99.90;;;2.72;98.33;99138.63;10317367;28;96909;-86
2023/03/07 07:48:20;;;;;;;48.03;27.57;;;4.40;99.90;;;2.92;97.82;99142.81;10318254;28;98568;-88
2023/03/07 07:53:23;;;;;;;51.17;30.30;;;4.60;99.90;;;2.95;95.66;99134.66;10311320;28;96830;-88
2023/03/07 07:58:26;;;;;;;50.40;29.97;;;4.80;99.90;;;3.19;95.47;99138.56;10325648;28;96809;-88
2023/03/07 08:03:29;;;;;;;43.07;26.03;;;4.90;99.90;;;3.38;94.17;99141.06;10352701;28;96526;-89
2023/03/07 08:08:33;;;;;;;44.63;27.57;;;5.10;99.90;;;3.60;93.72;99144.22;10304743;28;97008;-89
2023/03/07 08:13:36;;;;;;;43.53;25.57;;;5.30;99.90;;;3.71;92.58;99133.50;10322073;28;97605;-89
2023/03/07 08:18:41;;;;;;;180.87;58.43;;;5.50;99.90;;;3.95;92.35;99141.59;10332494;28;98473;-86
2023/03/07 08:23:44;;;;;;;52.33;28.77;;;5.70;99.90;;;4.20;91.77;99136.56;10320430;28;96567;-85
2023/03/07 08:28:47;;;;;;;45.47;26.87;;;5.90;99.90;;;4.38;90.83;99139.97;10334049;28;96454;-85
2023/03/07 08:33:51;;;;;;;50.37;29.10;;;6.10;99.90;;;4.47;89.00;99148.75;10338473;28;96392;-89
2023/03/07 08:38:54;;;;;;;88.23;35.40;;;6.20;99.90;;;4.69;88.36;99142.97;10292450;28;97538;-89
2023/03/07 08:43:58;;;;;;;85.67;35.13;;;6.40;99.90;;;4.89;87.36;99140.09;10300365;28;96663;-88
2023/03/07 08:49:01;;;;;;;517.10;135.20;;;6.60;99.90;;;4.93;85.82;99142.28;10300052;28;96747;-89
2023/03/07 08:54:04;;;;;;;120.17;47.13;;;6.60;99.90;;;5.08;85.15;99138.03;10278270;28;96693;-85
2023/03/07 08:59:07;;;;;;;71.33;33.40;;;6.80;99.90;;;5.31;84.68;99140.09;10330524;28;96657;-91
2023/03/07 09:04:10;;;;;;;58.13;30.40;;;7.00;99.90;;;5.54;84.17;99146.44;10346896;28;96715;-95
2023/03/07 09:09:13;;;;;;;66.17;28.93;;;7.20;99.90;;;5.71;83.06;99149.94;10305111;28;96582;-87
2023/03/07 09:14:16;;;;;;;521.53;152.03;;;7.40;99.90;;;5.86;82.15;99140.38;10347583;28;96740;-90
2023/03/07 09:19:19;;;;;;;83.77;36.13;;;7.60;99.90;;;5.99;81.41;99142.56;10317573;28;96499;-92
2023/03/07 09:24:22;;;;;;;59.70;29.53;;;7.70;99.90;;;6.17;81.01;99134.47;10340000;28;96452;-94
2023/03/07 09:29:25;;;;;;;53.23;29.27;;;7.90;99.90;;;6.30;80.21;99134.81;10311092;28;96533;-93
2023/03/07 09:34:28;;;;;;;57.17;26.60;;;8.00;99.90;;;6.42;78.93;99140.59;10323886;28;98668;-92
2023/03/07 09:39:32;;;;;;;60.40;29.70;;;8.10;99.90;;;6.60;78.24;99125.38;10354173;28;96521;-91
2023/03/07 09:44:47;;;;;;;52.57;32.93;;;8.30;99.90;;;6.86;77.30;99122.50;10347181;28;96565;-91
2023/03/07 09:49:52;;;;;;;42.00;26.00;;;8.50;99.90;;;7.03;75.86;99128.53;10319900;28;96614;-90
2023/03/07 09:55:03;;;;;;;50.73;25.50;;;8.70;99.90;;;7.20;73.61;99127.50;10300941;28;96752;-90
2023/03/07 10:00:18;;;;;;;;;;;8.80;99.90;;;7.32;72.60;99117.34;10303352;28;96806;-89
2023/03/07 10:05:48;;;;;;;40.37;23.63;;;8.90;99.90;;;7.33;70.58;99113.72;10356351;28;96668;-89
2023/03/07 10:11:03;;;;;;;29.67;16.03;;;9.00;99.90;;;7.36;66.12;99120.47;10314726;28;96943;-90
2023/03/07 10:16:45;;;;;;;22.83;13.77;;;9.00;99.20;;;7.65;63.53;99123.25;10315789;28;98836;-86
2023/03/07 10:22:23;;;;;;;20.67;13.73;;;9.30;98.80;;;8.00;56.94;99115.75;10284956;28;96654;-86
2023/03/07 10:27:29;;;;;;;14.87;8.43;;;9.70;94.90;;;8.16;55.80;99112.97;10303827;28;96507;-87
2023/03/07 10:32:59;;;;;;;14.23;8.20;;;9.90;91.30;;;8.56;54.45;99113.59;10325473;28;96553;-87
2023/03/07 10:38:25;;;;;;;16.07;10.53;;;10.20;90.50;;;8.97;50.74;99113.97;10353919;28;96585;-87
2023/03/07 10:43:31;;;;;;;13.63;6.50;;;10.60;81.60;;;9.00;49.36;99112.81;10323761;28;96596;-86
2023/03/07 10:48:39;;;;;;;10.53;5.93;;;10.70;79.40;;;8.66;47.57;99110.69;10341545;28;96693;-87
2023/03/07 10:53:42;;;;;;;11.63;7.37;;;10.50;75.10;;;8.64;49.47;99095.00;10312822;28;96566;-87
2023/03/07 10:59:13;;;;;;;9.90;6.07;;;10.40;75.40;;;8.82;49.53;99086.69;10332849;28;96627;-87
2023/03/07 11:04:22;;;;;;;9.53;5.27;;;10.40;76.80;;;8.83;48.97;99077.72;10337391;28;97698;-87
2023/03/07 11:09:30;;;;;;;9.23;5.50;;;10.40;75.40;;;8.91;49.11;99079.44;10331531;28;96443;-87
2023/03/07 11:14:49;;;;;;;7.87;4.47;;;10.50;75.70;;;8.86;48.58;99061.44;10324386;28;96488;-87
2023/03/07 11:19:56;;;;;;;9.60;6.03;;;10.50;75.80;;;8.92;48.77;99054.59;10339785;28;96505;-86
2023/03/07 11:25:12;;;;;;;11.27;7.23;;;10.60;75.60;;;8.90;48.85;99051.31;10337498;28;96487;-87
2023/03/07 11:30:50;;;;;;;13.77;7.60;;;10.50;74.60;;;8.76;47.96;99037.91;10339003;28;96471;-87
2023/03/07 11:35:58;;;;;;;15.53;8.20;;;10.50;71.70;;;8.58;47.82;99011.81;10317087;28;96567;-86
2023/03/07 11:41:25;;;;;;;24.43;13.33;;;10.30;71.50;;;8.63;48.40;99005.13;10355229;28;98754;-86
2023/03/07 11:46:55;;;;;;;19.27;11.17;;;10.30;72.40;;;8.77;48.45;99010.41;10316783;28;98469;-86
2023/03/07 11:52:40;;;;;;;24.47;13.10;;;10.40;72.70;;;8.91;48.51;98994.66;10334716;28;96584;-86
2023/03/07 11:58:10;;;;;;;15.80;10.27;;;10.60;72.70;;;8.91;48.49;98992.84;10242989;28;96692;-87
2023/03/07 12:03:56;;;;;;;15.20;10.20;;;10.60;71.60;;;8.92;47.86;98985.72;10333174;28;96500;-86
2023/03/07 12:09:17;;;;;;;15.87;11.03;;;10.60;71.00;;;8.98;48.67;98980.47;10310252;28;98343;-86
2023/03/07 12:14:51;;;;;;;;;;;10.60;71.50;;;8.95;46.95;98970.28;10338411;28;96427;-87
2023/03/07 12:20:46;;;;;;;17.08;10.48;;;10.70;70.50;;;8.98;47.88;98966.41;10331579;28;97568;-86
2023/03/07 12:25:55;;;;;;;56.97;40.03;;;10.60;71.10;;;9.00;48.06;98956.47;10316309;28;96573;-86
2023/03/07 12:31:18;;;;;;;26.17;17.27;;;10.60;70.60;;;9.01;48.18;98958.91;10313802;28;96674;-85
2023/03/07 12:36:41;;;;;;;36.40;21.13;;;10.60;70.90;;;9.02;48.77;98951.78;10329793;28;96675;-85
2023/03/07 12:42:40;;;;;;;24.27;17.77;;;10.60;71.10;;;9.05;48.76;98943.44;10308635;28;97876;-84
2023/03/07 12:47:55;;;;;;;43.03;35.17;;;10.70;70.90;;;8.98;50.43;98955.81;10323047;28;96489;-84
2023/03/07 12:53:28;;;;;;;18.77;12.47;;;10.70;72.70;;;8.80;51.49;98950.94;10336357;28;98764;-84
2023/03/07 12:58:59;;;;;;;20.30;12.50;;;10.60;74.10;;;8.54;52.78;98959.41;10352798;28;96613;-83
2023/03/07 13:04:27;;;;;;;17.47;11.07;;;10.40;75.10;;;8.21;54.48;98959.75;10327294;28;96663;-83
2023/03/07 13:09:32;;;;;;;29.17;18.37;;;10.00;76.80;;;8.13;55.85;98959.84;10330859;28;96582;-83
2023/03/07 13:15:21;;;;;;;49.17;33.37;;;9.90;78.40;;;7.90;55.99;98970.50;10318076;28;98474;-83
2023/03/07 13:20:27;;;;;;;52.33;31.23;;;9.70;78.70;;;7.73;56.63;98975.09;10284341;28;98427;-83
2023/03/07 13:25:50;;;;;;;79.30;56.57;;;9.50;79.20;;;7.59;56.18;98975.91;10295561;28;97007;-83
2023/03/07 13:31:27;;;;;;;64.63;39.27;;;9.40;79.10;;;7.56;56.80;98968.34;10337016;28;98732;-83
2023/03/07 13:36:38;;;;;;;18.70;12.40;;;9.30;79.70;;;7.36;57.24;98957.41;10319730;28;96643;-83
2023/03/07 13:41:49;;;;;;;19.70;12.73;;;9.20;80.30;;;7.59;57.83;98957.41;10313779;27;96700;-83
2023/03/07 13:46:57;;;;;;;21.88;10.80;;;9.30;81.10;;;7.79;57.55;98958.53;10324656;28;97402;-83
2023/03/07 13:52:22;;;;;;;46.13;26.63;;;9.40;80.70;;;7.77;57.15;98957.06;10312695;28;96560;-83
2023/03/07 13:57:34;;;;;;;25.10;15.87;;;9.40;80.10;;;7.73;57.03;98948.66;10336716;28;97137;-85
2023/03/07 14:02:40;;;;;;;43.13;25.20;;;9.40;80.40;;;7.67;57.12;98936.16;10312810;28;96606;-83
2023/03/07 14:07:50;;;;;;;59.77;30.03;;;9.40;80.70;;;7.59;57.85;98949.47;10279351;28;96631;-83
2023/03/07 14:13:03;;;;;;;21.70;11.47;;;9.30;81.40;;;7.50;58.01;98934.69;10313871;28;96529;-83
2023/03/07 14:18:43;;;;;;;21.53;12.23;;;9.20;81.60;;;7.53;58.40;98926.38;10351235;28;96802;-84
2023/03/07 14:24:10;;;;;;;15.13;9.15;;;9.20;82.20;;;7.51;58.59;98933.69;10329696;28;96448;-83
2023/03/07 14:29:21;;;;;;;17.83;9.93;;;9.20;82.30;;;7.37;58.53;98937.09;10341817;28;96729;-83
2023/03/07 14:34:30;;;;;;;20.83;10.67;;;9.10;82.00;;;7.16;58.20;98938.59;10342060;28;97400;-84
2023/03/07 14:39:52;;;;;;;38.10;19.07;;;8.90;81.80;;;6.93;58.47;98945.69;10339868;28;98188;-85
2023/03/07 14:45:30;;;;;;;75.73;35.47;;;8.70;82.00;;;6.74;59.39;98930.28;10340501;28;96862;-86
2023/03/07 14:50:33;;;;;;;79.13;35.57;;;8.50;83.10;;;6.62;60.13;98916.66;10310194;28;98594;-83
2023/03/07 14:55:40;;;;;;;399.67;159.13;;;8.30;83.70;;;6.50;60.10;98929.44;10352833;28;97427;-83
2023/03/07 15:00:44;;;;;;;361.93;155.60;;;8.20;84.00;;;6.42;60.64;98929.47;10286867;28;97385;-86
2023/03/07 15:05:51;;;;;;;84.43;38.60;;;8.10;84.60;;;6.37;61.24;98927.34;10337805;28;97502;-83
2023/03/07 15:11:24;;;;;;;40.43;21.73;;;8.10;85.10;;;6.29;61.33;98931.81;10285808;28;97199;-83
2023/03/07 15:16:40;;;;;;;22.00;15.63;;;8.00;85.50;;;6.18;61.85;98925.13;10302028;28;96465;-83
2023/03/07 15:21:49;;;;;;;21.93;13.97;;;7.90;86.20;;;6.10;62.46;98923.31;10299963;28;97635;-83
2023/03/07 15:26:54;;;;;;;18.57;10.57;;;7.80;86.60;;;6.04;62.77;98910.81;10318315;28;96638;-83
2023/03/07 15:32:06;;;;;;;14.80;8.97;;;7.80;87.00;;;6.03;63.41;98911.00;10332530;28;96465;-83
2023/03/07 15:37:18;;;;;;;;;;;7.80;87.70;;;6.05;63.86;98899.28;10291772;28;97256;-83
2023/03/07 15:42:29;;;;;;;17.93;10.43;;;7.80;88.50;;;6.07;64.38;98892.03;10328189;28;96663;-85
2023/03/07 15:47:33;;;;;;;50.03;22.70;;;7.80;88.10;;;6.00;64.94;98895.50;10320056;28;96607;-88
2023/03/07 15:52:38;;;;;;;83.73;34.67;;;7.80;89.30;;;5.88;66.33;98884.50;10333433;28;96664;-81
2023/03/07 15:57:55;;;;;;;234.37;90.20;;;7.60;90.40;;;5.78;67.62;98879.41;10320420;28;96551;-82
2023/03/07 16:03:28;;;;;;;173.77;69.63;;;7.60;91.10;;;5.71;68.67;98877.63;10302414;28;96548;-82
2023/03/07 16:08:33;;;;;;;168.13;72.47;;;7.40;92.00;;;5.64;69.37;98869.56;10319597;28;96524;-82
2023/03/07 16:13:41;;;;;;;585.93;245.77;;;7.40;92.50;;;5.57;69.76;98868.56;10337339;28;96539;-82
2023/03/07 16:18:45;;;;;;;93.53;45.70;;;7.30;93.00;;;5.46;70.10;98867.13;10318026;28;98413;-82
2023/03/07 16:23:49;;;;;;;37.40;18.57;;;7.20;93.20;;;5.35;70.08;98865.66;10325421;28;97766;-80
2023/03/07 16:28:53;;;;;;;33.27;18.67;;;7.10;93.60;;;5.31;70.49;98852.97;10327446;28;98372;-85
2023/03/07 16:33:56;;;;;;;26.77;13.93;;;7.00;93.90;;;5.27;70.79;98867.47;10290040;28;96533;-85
2023/03/07 16:38:59;;;;;;;19.27;12.57;;;7.00;94.10;;;5.18;71.18;98847.41;10351238;28;97672;-84
2023/03/07 16:44:02;;;;;;;31.60;14.70;;;6.90;94.40;;;5.13;71.54;98847.09;10335573;28;96965;-89
2023/03/07 16:49:09;;;;;;;27.23;14.33;;;6.90;94.60;;;5.13;71.62;98849.72;10346382;28;96557;-91
2023/03/07 16:54:12;;;;;;;26.57;12.77;;;6.90;94.80;;;5.08;72.21;98848.38;10304859;28;96484;-92
2023/03/07 16:59:18;;;;;;;28.27;14.73;;;6.80;94.90;;;5.06;72.22;98841.66;10321716;28;98444;-92
2023/03/07 17:04:21;;;;;;;20.93;13.40;;;6.90;95.20;;;5.04;72.41;98844.47;10313573;28;97375;-88
2023/03/07 17:09:24;;;;;;;24.13;14.80;;;6.80;95.50;;;5.04;72.67;98847.09;10308640;28;96733;-88
2023/03/07 17:14:27;;;;;;;38.67;20.23;;;6.80;95.60;;;5.04;72.97;98851.53;10295278;28;97220;-87
2023/03/07 17:19:32;;;;;;;41.93;23.40;;;6.80;95.80;;;5.04;73.01;98860.25;10287680;28;96732;-88
2023/03/07 17:24:35;;;;;;;32.17;18.50;;;6.80;96.00;;;5.03;73.62;98850.69;10318004;28;98455;-87
2023/03/07 17:29:44;;;;;;;31.30;17.23;;;6.80;96.30;;;5.05;73.62;98854.00;10316761;28;96845;-87
2023/03/07 17:34:47;;;;;;;30.30;15.83;;;6.80;96.40;;;5.05;73.81;98840.03;10313245;28;96637;-87
2023/03/07 17:39:50;;;;;;;21.10;11.93;;;6.80;96.60;;;5.07;73.83;98836.22;10317469;28;96543;-87
2023/03/07 17:44:53;;;;;;;22.90;13.23;;;6.90;96.80;;;5.08;73.90;98834.41;10308856;28;96651;-87
2023/03/07 17:49:57;;;;;;;31.70;16.07;;;6.90;96.90;;;5.05;73.99;98835.56;10323415;28;96704;-87
2023/03/07 17:55:00;;;;;;;28.50;16.03;;;6.90;97.10;;;4.99;74.16;98841.50;10330137;28;97784;-87
2023/03/07 18:00:11;;;;;;;29.57;14.80;;;6.80;97.20;;;4.90;74.59;98837.22;10301924;28;97108;-87
2023/03/07 18:05:14;;;;;;;31.30;14.63;;;6.70;97.30;;;4.78;74.76;98841.16;10318077;28;98544;-87
2023/03/07 18:10:17;;;;;;;59.17;25.40;;;6.60;97.60;;;4.64;75.26;98836.56;10331133;28;96765;-87
2023/03/07 18:15:21;;;;;;;35.37;16.97;;;6.50;97.70;;;4.46;75.26;98834.88;10298721;28;97159;-87
2023/03/07 18:20:26;;;;;;;36.00;17.63;;;6.30;97.70;;;4.25;75.64;98835.31;10321993;28;96504;-87
2023/03/07 18:25:29;;;;;;;77.13;28.83;;;6.20;97.90;;;4.08;76.27;98833.66;10332728;28;96653;-87
2023/03/07 18:30:32;;;;;;;58.57;20.53;;;6.00;98.10;;;3.91;76.39;98838.03;10349660;28;96668;-88
2023/03/07 18:35:36;;;;;;;35.30;15.83;;;5.90;98.30;;;3.80;76.85;98833.06;10333641;28;96994;-87
2023/03/07 18:40:39;;;;;;;30.27;15.07;;;5.70;98.80;;;3.73;77.31;98839.91;10331664;28;98263;-88
2023/03/07 18:45:43;;;;;;;43.83;18.53;;;5.60;99.10;;;3.70;77.75;98829.72;10337109;28;97372;-88
2023/03/07 18:51:02;;;;;;;48.77;22.37;;;5.60;99.40;;;3.71;77.87;98820.84;10307218;28;96629;-87
2023/03/07 18:56:15;;;;;;;34.17;18.37;;;5.60;99.70;;;3.73;78.22;98832.03;10330017;28;96614;-88
2023/03/07 19:01:21;;;;;;;31.13;16.10;;;5.60;99.90;;;3.76;78.45;98832.53;10327962;28;97055;-87
2023/03/07 19:06:31;;;;;;;31.13;16.50;;;5.60;99.90;;;3.77;78.33;98820.22;10359451;28;96711;-88
2023/03/07 19:11:35;;;;;;;33.90;19.03;;;5.60;99.90;;;3.67;78.30;98812.47;10335373;28;96540;-87
2023/03/07 19:16:38;;;;;;;39.97;21.20;;;5.60;99.90;;;3.56;78.59;98810.13;10282001;28;96552;-87
2023/03/07 19:21:41;;;;;;;34.53;19.07;;;5.40;99.90;;;3.42;78.70;98806.28;10320783;28;97386;-88
2023/03/07 19:26:45;;;;;;;40.13;21.77;;;5.30;99.90;;;3.32;78.87;98800.31;10355662;28;96949;-87
2023/03/07 19:31:48;;;;;;;42.90;20.53;;;5.30;99.90;;;3.25;79.66;98794.03;10335065;28;97373;-88
2023/03/07 19:36:51;;;;;;;39.50;21.87;;;5.10;99.90;;;3.20;79.90;98804.19;10332721;28;96392;-87
2023/03/07 19:41:54;;;;;;;41.53;21.90;;;5.10;99.90;;;3.16;80.33;98798.41;10370963;28;96492;-87
2023/03/07 19:46:57;;;;;;;34.80;20.07;;;5.10;99.90;;;3.22;80.73;98794.34;10346779;28;98276;-87
2023/03/07 19:52:00;;;;;;;32.03;15.37;;;5.10;99.90;;;3.29;80.80;98802.41;10332141;28;97465;-88
2023/03/07 19:57:03;;;;;;;37.73;20.07;;;5.10;99.90;;;3.36;80.95;98801.66;10356648;28;96626;-88
2023/03/07 20:02:06;;;;;;;39.40;21.90;;;5.20;99.90;;;3.45;81.29;98799.88;10302290;28;96876;-87
2023/03/07 20:07:09;;;;;;;38.07;17.93;;;5.30;99.90;;;3.56;81.45;98807.50;10302686;28;96557;-88
2023/03/07 20:12:13;;;;;;;39.00;23.83;;;5.40;99.90;;;3.66;81.78;98796.88;10310665;28;96632;-89
2023/03/07 20:17:16;;;;;;;41.27;24.23;;;5.50;99.90;;;3.76;81.82;98793.13;10290735;28;97253;-88
2023/03/07 20:22:22;;;;;;;50.50;27.33;;;5.60;99.90;;;3.88;81.71;98790.19;10337579;28;97794;-88
2023/03/07 20:27:25;;;;;;;57.00;28.77;;;5.70;99.90;;;3.98;81.85;98796.16;10287970;28;97636;-88
2023/03/07 20:32:29;;;;;;;53.33;26.73;;;5.80;99.90;;;4.06;81.70;98790.09;10296518;28;96742;-89
2023/03/07 20:37:32;;;;;;;76.43;36.03;;;5.90;99.90;;;4.12;81.77;98782.38;10318108;28;98284;-87
2023/03/07 20:42:36;;;;;;;53.07;26.20;;;5.90;99.90;;;4.19;81.68;98782.56;10319751;28;98863;-88
2023/03/07 20:47:39;;;;;;;47.23;26.10;;;6.00;99.90;;;4.25;81.64;98777.47;10297159;28;96841;-87
2023/03/07 20:52:42;;;;;;;42.50;23.27;;;6.10;99.90;;;4.32;81.64;98772.41;10300423;28;96416;-88
2023/03/07 20:57:47;;;;;;;60.77;34.23;;;6.10;99.90;;;4.39;81.49;98770.78;10337023;28;96767;-86
2023/03/07 21:02:50;;;;;;;58.83;30.70;;;6.20;99.90;;;4.46;81.28;98773.56;10315508;28;98478;-87
2023/03/07 21:08:08;;;;;;;63.03;34.13;;;6.30;99.90;;;4.51;81.17;98766.00;10333125;28;98188;-86
2023/03/07 21:13:12;;;;;;;107.77;46.90;;;6.30;99.90;;;4.50;81.02;98770.44;10295485;28;97402;-87
2023/03/07 21:18:15;;;;;;;74.07;40.53;;;6.30;99.90;;;4.45;80.88;98767.47;10308560;28;97321;-87